sensor_id;sensor_type;location;lat;lon;timestamp;temperature;humidity
4201;DHT22;2114;50.398;8.814;2022-09-17T00:00:40;11.40;99.90
4201;DHT22;2114;50.398;8.814;2022-09-17T00:05:41;11.40;99.90
4201;DHT22;2114;50.398;8.814;2022-09-17T00:10:42;11.50;99.90
4201;DHT22;2114;50.398;8.814;2022-09-17T00:15:45;11.50;99.90
4201;DHT22;2114;50.398;8.814;2022-09-17T00:20:46;11.50;99.90
4201;DHT22;2114;50.398;8.814;2022-09-17T00:25:47;11.60;99.90
4201;DHT22;2114;50.398;8.814;2022-09-17T00:30:47;11.60;99.90
4201;DHT22;2114;50.398;8.814;2022-09-17T00:35:59;11.50;99.90
4201;DHT22;2114;50.398;8.814;2022-09-17T00:41:02;11.40;99.90
4201;DHT22;2114;50.398;8.814;2022-09-17T00:46:07;11.40;99.90
4201;DHT22;2114;50.398;8.814;2022-09-17T00:51:10;11.50;99.90
4201;DHT22;2114;50.398;8.814;2022-09-17T00:56:34;11.50;99.90
4201;DHT22;2114;50.398;8.814;2022-09-17T01:01:35;11.60;99.90
4201;DHT22;2114;50.398;8.814;2022-09-17T01:07:05;11.60;99.90
4201;DHT22;2114;50.398;8.814;2022-09-17T01:12:34;11.70;99.90
4201;DHT22;2114;50.398;8.814;2022-09-17T01:18:05;11.70;99.90
4201;DHT22;2114;50.398;8.814;2022-09-17T01:23:31;11.70;99.90
4201;DHT22;2114;50.398;8.814;2022-09-17T01:28:39;11.80;99.90
4201;DHT22;2114;50.398;8.814;2022-09-17T01:33:52;11.80;99.90
4201;DHT22;2114;50.398;8.814;2022-09-17T01:39:28;11.80;99.90
4201;DHT22;2114;50.398;8.814;2022-09-17T01:49:39;11.70;99.90
4201;DHT22;2114;50.398;8.814;2022-09-17T01:54:44;11.70;99.90
4201;DHT22;2114;50.398;8.814;2022-09-17T01:59:58;11.60;99.90
4201;DHT22;2114;50.398;8.814;2022-09-17T02:05:20;11.70;99.90
4201;DHT22;2114;50.398;8.814;2022-09-17T02:10:29;11.60;99.90
4201;DHT22;2114;50.398;8.814;2022-09-17T02:15:39;11.70;99.90
4201;DHT22;2114;50.398;8.814;2022-09-17T02:20:45;11.60;99.90
4201;DHT22;2114;50.398;8.814;2022-09-17T02:26:09;11.50;99.90
4201;DHT22;2114;50.398;8.814;2022-09-17T02:31:11;11.60;99.90
4201;DHT22;2114;50.398;8.814;2022-09-17T02:36:12;11.60;99.90
4201;DHT22;2114;50.398;8.814;2022-09-17T02:41:20;11.60;99.90
4201;DHT22;2114;50.398;8.814;2022-09-17T02:57:10;11.50;99.90
4201;DHT22;2114;50.398;8.814;2022-09-17T03:02:23;11.50;99.90
4201;DHT22;2114;50.398;8.814;2022-09-17T03:07:25;11.50;99.90
4201;DHT22;2114;50.398;8.814;2022-09-17T03:12:28;11.40;99.90
4201;DHT22;2114;50.398;8.814;2022-09-17T03:17:29;11.40;99.90
4201;DHT22;2114;50.398;8.814;2022-09-17T03:22:29;11.40;99.90
4201;DHT22;2114;50.398;8.814;2022-09-17T03:27:30;11.50;99.90
4201;DHT22;2114;50.398;8.814;2022-09-17T03:32:31;11.50;99.90
4201;DHT22;2114;50.398;8.814;2022-09-17T03:37:31;11.50;99.90
4201;DHT22;2114;50.398;8.814;2022-09-17T03:42:32;11.50;99.90
4201;DHT22;2114;50.398;8.814;2022-09-17T03:47:32;11.40;99.90
4201;DHT22;2114;50.398;8.814;2022-09-17T03:52:33;11.40;99.90
4201;DHT22;2114;50.398;8.814;2022-09-17T03:57:33;11.40;99.90
4201;DHT22;2114;50.398;8.814;2022-09-17T04:02:34;11.30;99.90
4201;DHT22;2114;50.398;8.814;2022-09-17T04:07:34;11.30;99.90
4201;DHT22;2114;50.398;8.814;2022-09-17T04:12:35;11.20;99.90
4201;DHT22;2114;50.398;8.814;2022-09-17T04:17:36;11.10;99.90
4201;DHT22;2114;50.398;8.814;2022-09-17T04:22:37;11.10;99.90
4201;DHT22;2114;50.398;8.814;2022-09-17T04:27:37;11.00;99.90
4201;DHT22;2114;50.398;8.814;2022-09-17T04:32:38;10.90;99.90
4201;DHT22;2114;50.398;8.814;2022-09-17T04:37:39;10.90;99.90
4201;DHT22;2114;50.398;8.814;2022-09-17T04:42:39;10.80;99.90
4201;DHT22;2114;50.398;8.814;2022-09-17T04:47:40;10.80;99.90
4201;DHT22;2114;50.398;8.814;2022-09-17T04:52:44;10.80;99.90
4201;DHT22;2114;50.398;8.814;2022-09-17T04:57:50;10.70;99.90
4201;DHT22;2114;50.398;8.814;2022-09-17T05:02:53;10.60;99.90
4201;DHT22;2114;50.398;8.814;2022-09-17T05:07:54;10.60;99.90
4201;DHT22;2114;50.398;8.814;2022-09-17T05:12:55;10.50;99.90
4201;DHT22;2114;50.398;8.814;2022-09-17T05:17:56;10.50;99.90
4201;DHT22;2114;50.398;8.814;2022-09-17T05:22:56;10.50;99.90
4201;DHT22;2114;50.398;8.814;2022-09-17T05:27:57;10.40;99.90
4201;DHT22;2114;50.398;8.814;2022-09-17T05:33:02;10.40;99.90
4201;DHT22;2114;50.398;8.814;2022-09-17T05:38:04;10.40;99.90
4201;DHT22;2114;50.398;8.814;2022-09-17T05:43:05;10.40;99.90
4201;DHT22;2114;50.398;8.814;2022-09-17T05:48:09;10.40;99.90
4201;DHT22;2114;50.398;8.814;2022-09-17T05:53:12;10.40;99.90
4201;DHT22;2114;50.398;8.814;2022-09-17T05:58:15;10.40;99.90
4201;DHT22;2114;50.398;8.814;2022-09-17T06:03:17;10.40;99.90
4201;DHT22;2114;50.398;8.814;2022-09-17T06:08:18;10.40;99.90
4201;DHT22;2114;50.398;8.814;2022-09-17T06:13:20;10.50;99.90
4201;DHT22;2114;50.398;8.814;2022-09-17T06:18:21;10.60;99.90
4201;DHT22;2114;50.398;8.814;2022-09-17T06:23:21;10.60;99.90
4201;DHT22;2114;50.398;8.814;2022-09-17T06:28:24;10.70;99.90
4201;DHT22;2114;50.398;8.814;2022-09-17T06:33:25;10.70;99.90
4201;DHT22;2114;50.398;8.814;2022-09-17T06:38:30;10.80;99.90
4201;DHT22;2114;50.398;8.814;2022-09-17T06:43:31;10.70;99.90
4201;DHT22;2114;50.398;8.814;2022-09-17T06:48:34;10.70;99.90
4201;DHT22;2114;50.398;8.814;2022-09-17T06:53:36;10.80;99.90
4201;DHT22;2114;50.398;8.814;2022-09-17T06:58:37;10.80;99.90
4201;DHT22;2114;50.398;8.814;2022-09-17T07:03:41;10.90;99.90
4201;DHT22;2114;50.398;8.814;2022-09-17T07:08:45;11.00;99.90
4201;DHT22;2114;50.398;8.814;2022-09-17T07:13:46;11.00;99.90
4201;DHT22;2114;50.398;8.814;2022-09-17T07:18:46;11.10;99.90
4201;DHT22;2114;50.398;8.814;2022-09-17T07:23:47;11.30;99.90
4201;DHT22;2114;50.398;8.814;2022-09-17T07:28:48;11.40;99.90
4201;DHT22;2114;50.398;8.814;2022-09-17T07:33:48;11.50;99.90
4201;DHT22;2114;50.398;8.814;2022-09-17T07:38:49;11.60;99.90
4201;DHT22;2114;50.398;8.814;2022-09-17T07:43:51;11.60;99.90
4201;DHT22;2114;50.398;8.814;2022-09-17T07:48:53;11.80;99.90
4201;DHT22;2114;50.398;8.814;2022-09-17T07:53:55;11.90;99.90
4201;DHT22;2114;50.398;8.814;2022-09-17T07:58:57;12.00;99.90
4201;DHT22;2114;50.398;8.814;2022-09-17T08:03:57;12.30;99.90
4201;DHT22;2114;50.398;8.814;2022-09-17T08:08:58;12.40;99.90
4201;DHT22;2114;50.398;8.814;2022-09-17T08:13:59;12.50;99.90
4201;DHT22;2114;50.398;8.814;2022-09-17T08:19:00;12.60;99.90
4201;DHT22;2114;50.398;8.814;2022-09-17T08:24:00;12.70;99.90
4201;DHT22;2114;50.398;8.814;2022-09-17T08:29:01;12.90;99.90
4201;DHT22;2114;50.398;8.814;2022-09-17T08:34:06;13.30;99.90
4201;DHT22;2114;50.398;8.814;2022-09-17T08:39:07;13.60;99.90
4201;DHT22;2114;50.398;8.814;2022-09-17T08:44:29;13.90;99.90
4201;DHT22;2114;50.398;8.814;2022-09-17T08:55:09;14.40;99.90
4201;DHT22;2114;50.398;8.814;2022-09-17T09:00:15;14.70;99.90
4201;DHT22;2114;50.398;8.814;2022-09-17T09:05:19;15.30;99.90
4201;DHT22;2114;50.398;8.814;2022-09-17T09:16:01;15.80;99.90
4201;DHT22;2114;50.398;8.814;2022-09-17T09:21:25;15.90;99.90
4201;DHT22;2114;50.398;8.814;2022-09-17T09:26:43;16.20;99.90
4201;DHT22;2114;50.398;8.814;2022-09-17T09:32:11;17.00;99.90
4201;DHT22;2114;50.398;8.814;2022-09-17T09:42:34;18.40;99.90
4201;DHT22;2114;50.398;8.814;2022-09-17T09:53:18;18.30;99.90
4201;DHT22;2114;50.398;8.814;2022-09-17T09:58:38;17.90;99.90
4201;DHT22;2114;50.398;8.814;2022-09-17T10:03:40;17.50;99.90
4201;DHT22;2114;50.398;8.814;2022-09-17T10:19:21;16.30;99.90
4201;DHT22;2114;50.398;8.814;2022-09-17T10:24:30;16.00;99.90
4201;DHT22;2114;50.398;8.814;2022-09-17T10:29:32;15.80;99.90
4201;DHT22;2114;50.398;8.814;2022-09-17T10:34:33;16.00;99.90
4201;DHT22;2114;50.398;8.814;2022-09-17T10:39:35;16.50;99.90
4201;DHT22;2114;50.398;8.814;2022-09-17T10:44:53;17.40;99.90
4201;DHT22;2114;50.398;8.814;2022-09-17T10:49:59;18.50;99.90
4201;DHT22;2114;50.398;8.814;2022-09-17T11:00:18;19.20;99.90
4201;DHT22;2114;50.398;8.814;2022-09-17T11:16:01;19.40;99.90
4201;DHT22;2114;50.398;8.814;2022-09-17T11:21:12;19.90;99.90
4201;DHT22;2114;50.398;8.814;2022-09-17T11:32:31;20.90;99.90
4201;DHT22;2114;50.398;8.814;2022-09-17T11:37:45;21.70;99.90
4201;DHT22;2114;50.398;8.814;2022-09-17T11:48:17;23.10;99.50
4201;DHT22;2114;50.398;8.814;2022-09-17T11:53:36;23.50;95.80
4201;DHT22;2114;50.398;8.814;2022-09-17T11:58:45;23.60;94.10
4201;DHT22;2114;50.398;8.814;2022-09-17T12:09:25;22.90;91.10
4201;DHT22;2114;50.398;8.814;2022-09-17T12:14:46;22.50;91.70
4201;DHT22;2114;50.398;8.814;2022-09-17T12:19:56;22.30;93.30
4201;DHT22;2114;50.398;8.814;2022-09-17T12:25:00;22.60;93.10
4201;DHT22;2114;50.398;8.814;2022-09-17T12:30:11;22.80;92.10
4201;DHT22;2114;50.398;8.814;2022-09-17T13:02:19;23.90;90.90
4201;DHT22;2114;50.398;8.814;2022-09-17T13:23:49;22.90;90.50
4201;DHT22;2114;50.398;8.814;2022-09-17T13:28:51;22.10;90.50
4201;DHT22;2114;50.398;8.814;2022-09-17T13:33:57;20.50;95.80
4201;DHT22;2114;50.398;8.814;2022-09-17T13:39:02;19.50;96.60
4201;DHT22;2114;50.398;8.814;2022-09-17T13:44:07;18.40;98.60
4201;DHT22;2114;50.398;8.814;2022-09-17T13:49:14;17.70;99.90
4201;DHT22;2114;50.398;8.814;2022-09-17T13:54:17;17.50;99.90
4201;DHT22;2114;50.398;8.814;2022-09-17T13:59:22;17.30;99.90
4201;DHT22;2114;50.398;8.814;2022-09-17T14:04:34;16.80;99.90
4201;DHT22;2114;50.398;8.814;2022-09-17T14:14:52;16.10;99.90
4201;DHT22;2114;50.398;8.814;2022-09-17T14:19:53;16.00;99.90
4201;DHT22;2114;50.398;8.814;2022-09-17T14:24:54;15.90;99.90
4201;DHT22;2114;50.398;8.814;2022-09-17T14:30:21;15.70;99.90
4201;DHT22;2114;50.398;8.814;2022-09-17T14:40:34;15.40;99.90
4201;DHT22;2114;50.398;8.814;2022-09-17T14:45:41;15.40;99.90
4201;DHT22;2114;50.398;8.814;2022-09-17T14:50:42;15.20;99.90
4201;DHT22;2114;50.398;8.814;2022-09-17T14:55:47;14.90;99.90
4201;DHT22;2114;50.398;8.814;2022-09-17T15:00:52;14.70;99.90
4201;DHT22;2114;50.398;8.814;2022-09-17T15:05:53;14.70;99.90
4201;DHT22;2114;50.398;8.814;2022-09-17T15:11:02;14.70;99.90
4201;DHT22;2114;50.398;8.814;2022-09-17T15:16:05;14.80;99.90
4201;DHT22;2114;50.398;8.814;2022-09-17T15:26:40;15.10;99.90
4201;DHT22;2114;50.398;8.814;2022-09-17T15:31:42;15.30;99.90
4201;DHT22;2114;50.398;8.814;2022-09-17T15:37:03;15.50;99.90
4201;DHT22;2114;50.398;8.814;2022-09-17T15:42:13;15.70;99.90
4201;DHT22;2114;50.398;8.814;2022-09-17T15:52:48;16.10;99.90
4201;DHT22;2114;50.398;8.814;2022-09-17T15:57:49;16.10;99.90
4201;DHT22;2114;50.398;8.814;2022-09-17T16:02:49;16.20;99.90
4201;DHT22;2114;50.398;8.814;2022-09-17T16:07:51;16.20;99.90
4201;DHT22;2114;50.398;8.814;2022-09-17T16:12:51;16.20;99.90
4201;DHT22;2114;50.398;8.814;2022-09-17T16:17:52;16.10;99.90
4201;DHT22;2114;50.398;8.814;2022-09-17T16:22:53;16.00;99.90
4201;DHT22;2114;50.398;8.814;2022-09-17T16:28:01;15.90;99.90
4201;DHT22;2114;50.398;8.814;2022-09-17T16:33:02;15.70;99.90
4201;DHT22;2114;50.398;8.814;2022-09-17T16:38:03;15.50;99.90
4201;DHT22;2114;50.398;8.814;2022-09-17T16:43:04;15.30;99.90
4201;DHT22;2114;50.398;8.814;2022-09-17T16:48:05;15.10;99.90
4201;DHT22;2114;50.398;8.814;2022-09-17T16:53:06;14.90;99.90
4201;DHT22;2114;50.398;8.814;2022-09-17T16:58:06;14.70;99.90
4201;DHT22;2114;50.398;8.814;2022-09-17T17:03:13;14.60;99.90
4201;DHT22;2114;50.398;8.814;2022-09-17T17:08:14;14.50;99.90
4201;DHT22;2114;50.398;8.814;2022-09-17T17:13:14;14.40;99.90
4201;DHT22;2114;50.398;8.814;2022-09-17T17:18:15;14.30;99.90
4201;DHT22;2114;50.398;8.814;2022-09-17T17:23:18;14.10;99.90
4201;DHT22;2114;50.398;8.814;2022-09-17T17:28:19;13.90;99.90
4201;DHT22;2114;50.398;8.814;2022-09-17T17:33:19;13.70;99.90
4201;DHT22;2114;50.398;8.814;2022-09-17T17:38:20;13.60;99.90
4201;DHT22;2114;50.398;8.814;2022-09-17T17:43:21;13.40;99.90
4201;DHT22;2114;50.398;8.814;2022-09-17T17:48:21;13.30;99.90
4201;DHT22;2114;50.398;8.814;2022-09-17T17:53:22;13.10;99.90
4201;DHT22;2114;50.398;8.814;2022-09-17T17:58:22;13.00;99.90
4201;DHT22;2114;50.398;8.814;2022-09-17T18:03:23;12.80;99.90
4201;DHT22;2114;50.398;8.814;2022-09-17T18:08:24;12.70;99.90
4201;DHT22;2114;50.398;8.814;2022-09-17T18:13:25;12.60;99.90
4201;DHT22;2114;50.398;8.814;2022-09-17T18:18:34;12.50;99.90
4201;DHT22;2114;50.398;8.814;2022-09-17T18:23:37;12.40;99.90
4201;DHT22;2114;50.398;8.814;2022-09-17T18:28:38;12.40;99.90
4201;DHT22;2114;50.398;8.814;2022-09-17T18:33:39;12.30;99.90
4201;DHT22;2114;50.398;8.814;2022-09-17T18:38:40;12.20;99.90
4201;DHT22;2114;50.398;8.814;2022-09-17T18:43:40;12.10;99.90
4201;DHT22;2114;50.398;8.814;2022-09-17T18:48:41;12.00;99.90
4201;DHT22;2114;50.398;8.814;2022-09-17T18:53:43;11.90;99.90
4201;DHT22;2114;50.398;8.814;2022-09-17T18:58:45;11.80;99.90
4201;DHT22;2114;50.398;8.814;2022-09-17T19:03:46;11.70;99.90
4201;DHT22;2114;50.398;8.814;2022-09-17T19:08:47;11.60;99.90
4201;DHT22;2114;50.398;8.814;2022-09-17T19:13:49;11.50;99.90
4201;DHT22;2114;50.398;8.814;2022-09-17T19:18:50;11.50;99.90
4201;DHT22;2114;50.398;8.814;2022-09-17T19:23:51;11.60;99.90
4201;DHT22;2114;50.398;8.814;2022-09-17T19:28:56;11.50;99.90
4201;DHT22;2114;50.398;8.814;2022-09-17T19:33:57;11.50;99.90
4201;DHT22;2114;50.398;8.814;2022-09-17T19:38:58;11.50;99.90
4201;DHT22;2114;50.398;8.814;2022-09-17T19:43:58;11.40;99.90
4201;DHT22;2114;50.398;8.814;2022-09-17T19:48:59;11.40;99.90
4201;DHT22;2114;50.398;8.814;2022-09-17T19:54:00;11.30;99.90
4201;DHT22;2114;50.398;8.814;2022-09-17T19:59:01;11.20;99.90
4201;DHT22;2114;50.398;8.814;2022-09-17T20:04:02;11.10;99.90
4201;DHT22;2114;50.398;8.814;2022-09-17T20:09:02;11.00;99.90
4201;DHT22;2114;50.398;8.814;2022-09-17T20:14:03;11.00;99.90
4201;DHT22;2114;50.398;8.814;2022-09-17T20:19:07;10.90;99.90
4201;DHT22;2114;50.398;8.814;2022-09-17T20:24:07;10.90;99.90
4201;DHT22;2114;50.398;8.814;2022-09-17T20:29:08;10.90;99.90
4201;DHT22;2114;50.398;8.814;2022-09-17T20:34:10;10.80;99.90
4201;DHT22;2114;50.398;8.814;2022-09-17T20:39:11;10.70;99.90
4201;DHT22;2114;50.398;8.814;2022-09-17T20:44:12;10.70;99.90
4201;DHT22;2114;50.398;8.814;2022-09-17T20:49:12;10.70;99.90
4201;DHT22;2114;50.398;8.814;2022-09-17T20:54:13;10.60;99.90
4201;DHT22;2114;50.398;8.814;2022-09-17T20:59:14;10.70;99.90
4201;DHT22;2114;50.398;8.814;2022-09-17T21:04:19;10.70;99.90
4201;DHT22;2114;50.398;8.814;2022-09-17T21:09:19;10.80;99.90
4201;DHT22;2114;50.398;8.814;2022-09-17T21:14:20;10.80;99.90
4201;DHT22;2114;50.398;8.814;2022-09-17T21:19:21;10.90;99.90
4201;DHT22;2114;50.398;8.814;2022-09-17T21:24:23;11.00;99.90
4201;DHT22;2114;50.398;8.814;2022-09-17T21:29:24;11.00;99.90
4201;DHT22;2114;50.398;8.814;2022-09-17T21:34:24;11.00;99.90
4201;DHT22;2114;50.398;8.814;2022-09-17T21:39:25;11.00;99.90
4201;DHT22;2114;50.398;8.814;2022-09-17T21:44:25;11.10;99.90
4201;DHT22;2114;50.398;8.814;2022-09-17T21:49:26;11.10;99.90
4201;DHT22;2114;50.398;8.814;2022-09-17T21:54:26;11.20;99.90
4201;DHT22;2114;50.398;8.814;2022-09-17T21:59:27;11.20;99.90
4201;DHT22;2114;50.398;8.814;2022-09-17T22:04:28;11.30;99.90
4201;DHT22;2114;50.398;8.814;2022-09-17T22:09:28;11.30;99.90
4201;DHT22;2114;50.398;8.814;2022-09-17T22:14:29;11.30;99.90
4201;DHT22;2114;50.398;8.814;2022-09-17T22:19:30;11.30;99.90
4201;DHT22;2114;50.398;8.814;2022-09-17T22:24:30;11.30;99.90
4201;DHT22;2114;50.398;8.814;2022-09-17T22:29:31;11.40;99.90
4201;DHT22;2114;50.398;8.814;2022-09-17T22:34:32;11.40;99.90
4201;DHT22;2114;50.398;8.814;2022-09-17T22:39:32;11.40;99.90
4201;DHT22;2114;50.398;8.814;2022-09-17T22:44:33;11.40;99.90
4201;DHT22;2114;50.398;8.814;2022-09-17T22:49:33;11.40;99.90
4201;DHT22;2114;50.398;8.814;2022-09-17T22:54:34;11.40;99.90
4201;DHT22;2114;50.398;8.814;2022-09-17T22:59:34;11.40;99.90
4201;DHT22;2114;50.398;8.814;2022-09-17T23:04:35;11.30;99.90
4201;DHT22;2114;50.398;8.814;2022-09-17T23:09:36;11.30;99.90
4201;DHT22;2114;50.398;8.814;2022-09-17T23:14:37;11.30;99.90
4201;DHT22;2114;50.398;8.814;2022-09-17T23:19:37;11.20;99.90
4201;DHT22;2114;50.398;8.814;2022-09-17T23:24:38;11.20;99.90
4201;DHT22;2114;50.398;8.814;2022-09-17T23:29:38;11.10;99.90
4201;DHT22;2114;50.398;8.814;2022-09-17T23:34:39;11.10;99.90
4201;DHT22;2114;50.398;8.814;2022-09-17T23:39:40;11.20;99.90
4201;DHT22;2114;50.398;8.814;2022-09-17T23:44:41;11.20;99.90
4201;DHT22;2114;50.398;8.814;2022-09-17T23:49:42;11.10;99.90
4201;DHT22;2114;50.398;8.814;2022-09-17T23:54:42;11.10;99.90
4201;DHT22;2114;50.398;8.814;2022-09-17T23:59:43;11.00;99.90
